Аэропорт: Ивано-Франковск. Ивано-Франковск

ICAO: UKLI

METAR:
2021-07-28 14:00:00
UKLI 281400Z 17004MPS 9999 FEW053 26/18 Q1013 R10/090070 NOSIG
METAR:
2021-07-28 11:05:00
TAF UKLI 281105Z 2812/2821 12003MPS 9999 SCT020CB BKN030 TX32/2813Z TN26/2818Z TEMPO 2812/2818 VRB13G18MPS 1000 TSRAGR SQ BKN006 BKN011CB